St. David's Bench

*Note: All times are displayed in the local standard time of the station location.
**Rain - Equipment is designed to accurately record liquid precipitation; under conditions when precipitation is not in liquid form, the data displayed may not properly reflect rainfall values.

Date Max Temp
(°C)
Min Temp
(°C)
Avg Temp
(°C)
Rain (mm) Avg RH (%)
Fri, Jun 22, 2018 24.8 6.9 17.0 2.0 69.5
Thu, Jun 21, 2018 24.4 10.7 18.2 0.0 60.0
Wed, Jun 20, 2018 26.4 10.7 19.0 0.0 64.1
Tue, Jun 19, 2018 25.3 14.8 20.2 0.0 63.7
Mon, Jun 18, 2018 33.9 20.7 26.0 1.6 72.5
Sun, Jun 17, 2018 33.7 17.1 25.9 0.0 48.3
Sat, Jun 16, 2018 30.6 14.8 22.8 0.0 46.0
DateTime Avg Temp (°C) Rain (mm) RH (%)
Sat, Jun 23, 2018 09:00 17.3 0.0 93.5
Sat, Jun 23, 2018 08:00 16.7 0.0 94.0
Sat, Jun 23, 2018 07:00 17.0 1.2 88.3
Sat, Jun 23, 2018 06:00 17.1 0.0 88.8
Sat, Jun 23, 2018 05:00 17.0 0.0 94.0
Sat, Jun 23, 2018 04:00 17.2 0.0 94.0
Sat, Jun 23, 2018 03:00 17.7 0.0 91.0
Sat, Jun 23, 2018 02:00 17.8 0.0 89.3
Sat, Jun 23, 2018 01:00 17.4 0.0 95.0
Sat, Jun 23, 2018 00:00 17.8 0.0 95.0
Fri, Jun 22, 2018 23:00 18.1 1.0 93.0
Fri, Jun 22, 2018 22:00 18.6 0.4 88.5
Fri, Jun 22, 2018 21:00 19.5 0.2 83.0
Fri, Jun 22, 2018 20:00 20.1 0.0 74.5
Fri, Jun 22, 2018 19:00 19.9 0.0 77.8
Fri, Jun 22, 2018 18:00 18.5 0.0 80.8
Fri, Jun 22, 2018 17:00 18.1 0.4 79.3
Fri, Jun 22, 2018 16:00 20.8 0.0 62.5
Fri, Jun 22, 2018 15:00 22.9 0.0 55.5
Fri, Jun 22, 2018 14:00 23.6 0.0 50.0
Fri, Jun 22, 2018 13:00 23.6 0.0 46.5
Fri, Jun 22, 2018 12:00 21.9 0.0 45.8
Fri, Jun 22, 2018 11:00 21.6 0.0 43.3
Fri, Jun 22, 2018 10:00 20.1 0.0 44.8
Fri, Jun 22, 2018 09:00 17.4 0.0 54.8
Fri, Jun 22, 2018 08:00 14.8 0.0 61.5
Fri, Jun 22, 2018 07:00 12.3 0.0 70.0
Fri, Jun 22, 2018 06:00 9.7 0.0 78.5
Fri, Jun 22, 2018 05:00 8.5 0.0 81.3
Fri, Jun 22, 2018 04:00 7.4 0.0 87.0
Fri, Jun 22, 2018 03:00 9.7 0.0 78.3
Fri, Jun 22, 2018 02:00 11.3 0.0 69.8
Fri, Jun 22, 2018 01:00 11.6 0.0 66.5
Fri, Jun 22, 2018 00:00 14.5 0.0 54.8
Thu, Jun 21, 2018 23:00 14.5 0.0 50.5
Thu, Jun 21, 2018 22:00 15.2 0.0 52.0
Thu, Jun 21, 2018 21:00 18.8 0.0 37.5
Thu, Jun 21, 2018 20:00 21.3 0.0 31.5
Thu, Jun 21, 2018 19:00 22.9 0.0 27.0
Thu, Jun 21, 2018 18:00 24.2 0.0 27.5
Thu, Jun 21, 2018 17:00 24.0 0.0 32.5
Thu, Jun 21, 2018 16:00 23.0 0.0 43.0
Thu, Jun 21, 2018 15:00 22.6 0.0 45.5
Thu, Jun 21, 2018 14:00 22.1 0.0 48.5
Thu, Jun 21, 2018 13:00 22.2 0.0 49.8
Thu, Jun 21, 2018 12:00 21.5 0.0 52.8
Thu, Jun 21, 2018 11:00 20.7 0.0 55.8
Thu, Jun 21, 2018 10:00 19.8 0.0 59.5


asterix Register now to access more data! asterix